^^

Nearby METAR Reports

 

EGHH - Bournemouth Airp, United Kingdom
Distance from station: S 10mi, 17km
Updated: 06/12/2019 07:50
Light rain, Mostly cloudy
Light rain, Mostly cloudy
 Wind from WSW
Wind: WSW 25 mph , 41 km/h, Gust: 38 mph , 61 km/h
Temperature: 12°C
Dew Point: 11°C
Humidity: 94%
Barometer: 1007 hPa
Summary: Light rain
Clouds: Mostly cloudy
Visibility: 5 miles , 8 km
Cloud details: Mostly cloudy 244 m
2019/12/06 07:50 EGHH 060750Z 24022G33KT 8000 -RA BKN008 12/11 Q1007
EGDM - Boscombe Down, United Kingdom
Distance from station: N 16mi, 26km
Updated: 06/12/2019 07:50
Overcast
Overcast
 Wind from SW
Wind: SW 18 mph , 30 km/h
Temperature: 11°C
Dew Point: 10°C
Humidity: 94%
Barometer: 1006 hPa
Clouds: Overcast
Visibility: 6 miles , 10 km
Cloud details: Overcast 274 m
2019/12/06 07:50 EGDM 060750Z 23016KT 9999 OVC009 11/10 Q1006 NOSIG RMK GRN GRN
 
EGVP - Middle Wallop, United Kingdom
Distance from station: NE 17mi, 27km
Updated: 06/12/2019 07:50
Light rain, Overcast
Light rain, Overcast
 Wind from SW
Wind: SW 15 mph , 24 km/h
Temperature: 12°C
Dew Point: 10°C
Humidity: 88%
Barometer: 1006 hPa
Summary: Light rain
Clouds: Overcast
Visibility: 6 miles , 10 km
Cloud details: Few Clouds 244 m
Mostly cloudy 274 m
Overcast 488 m
2019/12/06 07:50 EGVP 060750Z 22013KT 9999 -RA FEW008 BKN009 OVC016 12/10 Q1006 TEMPO 23015G25KT 5000 -RADZ RMK GRN TEMPO GRN
EGHI - Southampton Wx C, United Kingdom
Distance from station: E 19mi, 31km
Updated: 06/12/2019 07:50
Light drizzle, Mostly cloudy
Light drizzle, Mostly cloudy
 Wind from SW
Wind: SW 17 mph , 28 km/h, Gust: 30 mph , 48 km/h
Temperature: 12°C
Dew Point: 11°C
Humidity: 94%
Barometer: 1007 hPa
Summary: Light Drizzle
Clouds: Mostly cloudy
Visibility: 5 miles , 8 km
Cloud details: Mostly cloudy 305 m
2019/12/06 07:50 EGHI 060750Z 22015G26KT 190V250 8000 -DZ BKN010 12/11 Q1007
 
EGDY - Yeovilton (navy), United Kingdom
Distance from station: W 36mi, 58km
Updated: 06/12/2019 07:50
Partly cloudy
Partly cloudy
 Wind from SW
Wind: SW 13 mph , 20 km/h, Gust: 24 mph , 39 km/h
Temperature: 12°C
Dew Point: 10°C
Humidity: 88%
Barometer: 1006 hPa
Clouds: Partly cloudy
Visibility: 6 miles , 10 km
Cloud details: Partly cloudy 366 m
Partly cloudy 671 m
2019/12/06 07:50 EGDY 060750Z 22011G21KT 9999 SCT012 SCT022 12/10 Q1006 GRN BECMG BKN018 RMK GRN BECMG WHT
EGUO - Colerne Raf, United Kingdom
Distance from station: NNW 41mi, 66km
Updated: 14/02/2019 22:50
NOT Current
Clear
Clear
 Wind from ENE
Wind: ENE 1 mph , 2 km/h
Temperature: 1°C
Dew Point: 0°C
Humidity: 93%
Barometer: 1029 hPa
Summary: Clear
Visibility: greater than 7 miles , 10 km
2019/02/14 22:50 EGUO 142250Z 06001KT CAVOK 01/00 Q1029 BLU NOSIG
 
EGVO - Odiham Raf, United Kingdom
Distance from station: ENE 42mi, 68km
Updated: 06/12/2019 07:50
Light drizzle, Overcast
Light drizzle, Overcast
 Wind from SSW
Wind: SSW 23 mph , 37 km/h
Temperature: 11°C
Dew Point: 11°C
Humidity: 100%
Barometer: 1006 hPa
Summary: Light Drizzle
Clouds: Overcast
Visibility: 4 miles , 6 km
Cloud details: Mostly cloudy 183 m
Overcast 1219 m
2019/12/06 07:50 EGVO 060750Z 21020KT 6000 -DZ BKN006 OVC040 11/11 Q1006 NOSIG RMK YLO1 YLO1
EGGD - Bristol/Lulsgate, United Kingdom
Distance from station: NW 50mi, 81km
Updated: 06/12/2019 07:50
Rain, Fog, Overcast
Rain, Fog, Overcast
 Wind from SW
Wind: SW 14 mph , 22 km/h
Temperature: 10°C
Wind Chill: 7°C
Dew Point: 10°C
Humidity: 100%
Barometer: 1005 hPa
Summary: Rain, Fog
Clouds: Overcast
Visibility: 0 mile , 1 km
Cloud details: Overcast 61 m
2019/12/06 07:50 EGGD 060750Z AUTO 23012KT 0500 R27/P1500 RA FG OVC002 10/10 Q1005 REDZ